createdAt,value
2023-02-14T00:01:55.634Z,8.50
2023-02-14T00:04:22.161Z,9.47
2023-02-14T00:06:49.246Z,8.83
2023-02-14T00:09:17.092Z,8.80
2023-02-14T00:11:43.770Z,9.20
2023-02-14T00:14:28.936Z,10.57
2023-02-14T00:16:55.644Z,10.60
2023-02-14T00:19:22.505Z,8.43
2023-02-14T00:21:49.645Z,10.00
2023-02-14T00:24:16.057Z,9.73
2023-02-14T00:26:43.110Z,9.23
2023-02-14T00:29:11.406Z,9.10
2023-02-14T00:31:38.812Z,8.83
2023-02-14T00:34:05.489Z,9.83
2023-02-14T00:36:32.006Z,9.67
2023-02-14T00:38:58.866Z,8.97
2023-02-14T00:41:25.325Z,8.77
2023-02-14T00:43:53.112Z,12.03
2023-02-14T00:46:20.399Z,9.13
2023-02-14T00:48:47.185Z,9.30
2023-02-14T00:51:14.109Z,10.17
2023-02-14T00:53:40.950Z,9.93
2023-02-14T00:56:07.575Z,8.90
2023-02-14T00:58:35.572Z,9.53
2023-02-14T01:01:02.559Z,12.20
2023-02-14T01:03:29.240Z,11.17
2023-02-14T01:05:56.407Z,9.77
2023-02-14T01:08:23.300Z,10.73
2023-02-14T01:10:50.114Z,10.10
2023-02-14T01:13:17.035Z,10.47
2023-02-14T01:15:47.662Z,10.43
2023-02-14T01:18:14.660Z,9.87
2023-02-14T01:20:41.421Z,9.43
2023-02-14T01:23:08.123Z,9.80
2023-02-14T01:25:36.705Z,9.73
2023-02-14T01:28:03.339Z,11.17
2023-02-14T01:30:29.825Z,10.60
2023-02-14T01:32:56.309Z,10.03
2023-02-14T01:35:22.843Z,10.40
2023-02-14T01:37:50.387Z,9.33
2023-02-14T01:40:17.158Z,10.30
2023-02-14T01:42:43.748Z,10.10
2023-02-14T01:45:20.925Z,10.67
2023-02-14T01:47:50.267Z,11.53
2023-02-14T01:50:19.515Z,12.60
2023-02-14T01:52:48.897Z,11.10
2023-02-14T01:55:23.426Z,11.13
2023-02-14T01:57:51.920Z,11.20
2023-02-14T02:00:37.589Z,12.50
2023-02-14T02:03:05.251Z,11.53
2023-02-14T02:05:31.688Z,12.00
2023-02-14T02:07:59.849Z,10.63
2023-02-14T02:10:27.690Z,11.10
2023-02-14T02:12:54.177Z,11.27
2023-02-14T02:15:23.595Z,11.10
2023-02-14T02:17:57.290Z,10.40
2023-02-14T02:20:24.422Z,11.50
2023-02-14T02:22:51.424Z,13.13
2023-02-14T02:25:47.410Z,12.00
2023-02-14T02:28:32.405Z,11.23
2023-02-14T02:31:09.502Z,11.87
2023-02-14T02:33:48.255Z,12.37
2023-02-14T02:36:33.023Z,12.20
2023-02-14T02:39:18.212Z,10.17
2023-02-14T02:41:44.640Z,10.97
2023-02-14T02:44:29.580Z,12.13
2023-02-14T02:47:02.881Z,13.33
2023-02-14T02:50:03.471Z,11.67
2023-02-14T02:52:54.872Z,11.30
2023-02-14T02:55:27.880Z,13.77
2023-02-14T02:57:55.072Z,13.13
2023-02-14T03:00:22.125Z,13.03
2023-02-14T03:03:09.022Z,14.27
2023-02-14T03:05:35.793Z,11.37
2023-02-14T03:08:03.017Z,13.67
2023-02-14T03:10:35.555Z,12.33
2023-02-14T03:13:22.216Z,11.27
2023-02-14T03:15:54.755Z,17.37
2023-02-14T03:18:27.357Z,13.67
2023-02-14T03:21:02.251Z,12.90
2023-02-14T03:23:35.992Z,15.93
2023-02-14T03:26:27.264Z,14.53
2023-02-14T03:29:20.486Z,13.33
2023-02-14T03:31:59.350Z,13.67
2023-02-14T03:34:32.807Z,13.83
2023-02-14T03:37:03.257Z,17.53
2023-02-14T03:39:38.125Z,19.10
2023-02-14T03:42:10.705Z,24.23
2023-02-14T03:44:37.908Z,23.17
2023-02-14T03:47:16.596Z,20.97
2023-02-14T03:49:45.390Z,18.67
2023-02-14T03:52:12.523Z,18.00
2023-02-14T03:54:39.062Z,21.30
2023-02-14T03:57:08.597Z,16.53
2023-02-14T03:59:35.920Z,16.60
2023-02-14T04:02:11.455Z,15.97
2023-02-14T04:04:40.747Z,21.57
2023-02-14T04:07:17.665Z,16.80
2023-02-14T04:09:44.314Z,20.50
2023-02-14T04:12:11.281Z,15.43
2023-02-14T04:14:37.914Z,16.77
2023-02-14T04:17:23.102Z,15.37
2023-02-14T04:19:49.874Z,16.00
2023-02-14T04:22:16.517Z,19.87
2023-02-14T04:24:42.984Z,20.77
2023-02-14T04:27:12.306Z,15.37
2023-02-14T04:29:40.146Z,16.00
2023-02-14T04:32:07.742Z,16.80
2023-02-14T04:34:34.364Z,18.73
2023-02-14T04:37:01.022Z,17.00
2023-02-14T04:39:27.535Z,19.63
2023-02-14T04:41:54.291Z,17.20
2023-02-14T04:44:20.780Z,19.07
2023-02-14T04:46:47.295Z,19.43
2023-02-14T04:49:14.921Z,17.93
2023-02-14T04:51:42.318Z,20.13
2023-02-14T04:54:08.840Z,17.17
2023-02-14T04:56:35.365Z,22.13
2023-02-14T04:59:01.931Z,20.10
2023-02-14T05:01:29.085Z,22.70
2023-02-14T05:03:55.779Z,18.60
2023-02-14T05:06:25.106Z,22.90
2023-02-14T05:08:51.643Z,21.23
2023-02-14T05:11:18.216Z,21.03
2023-02-14T05:13:47.175Z,29.20
2023-02-14T05:16:14.968Z,36.23
2023-02-14T05:18:41.613Z,25.50
2023-02-14T05:21:08.767Z,27.93
2023-02-14T05:23:35.336Z,24.37
2023-02-14T05:26:02.753Z,29.07
2023-02-14T05:28:30.011Z,26.33
2023-02-14T05:30:58.111Z,23.70
2023-02-14T05:33:25.655Z,25.13
2023-02-14T05:35:52.291Z,40.00
2023-02-14T05:38:19.434Z,21.90
2023-02-14T05:40:46.020Z,24.37
2023-02-14T05:43:12.537Z,24.97
2023-02-14T05:45:40.495Z,24.43
2023-02-14T05:48:07.157Z,28.37
2023-02-14T05:50:33.786Z,23.87
2023-02-14T05:53:01.037Z,32.83
2023-02-14T05:55:27.502Z,25.37
2023-02-14T05:57:53.986Z,33.93
2023-02-14T06:00:20.872Z,22.13
2023-02-14T06:02:47.345Z,21.80
2023-02-14T06:05:14.853Z,21.57
2023-02-14T06:07:43.324Z,24.93
2023-02-14T06:10:10.192Z,20.53
2023-02-14T06:12:36.787Z,25.30
2023-02-14T06:15:03.470Z,27.30
2023-02-14T06:17:29.920Z,33.40
2023-02-14T06:19:56.425Z,27.87
2023-02-14T06:22:22.893Z,27.50
2023-02-14T06:24:49.300Z,28.10
2023-02-14T06:27:15.853Z,29.77
2023-02-14T06:29:43.721Z,41.77
2023-02-14T06:32:10.520Z,28.67
2023-02-14T06:34:40.963Z,40.50
2023-02-14T06:37:07.754Z,43.33
2023-02-14T06:39:34.184Z,35.67
2023-02-14T06:42:00.654Z,39.43
2023-02-14T06:44:27.128Z,34.60
2023-02-14T06:46:53.741Z,39.43
2023-02-14T06:49:20.242Z,36.97
2023-02-14T06:51:46.723Z,44.33
2023-02-14T06:54:13.212Z,52.33
2023-02-14T06:56:39.869Z,45.47
2023-02-14T06:59:06.439Z,40.50
2023-02-14T07:01:33.106Z,45.50
2023-02-14T07:03:59.652Z,58.00
2023-02-14T07:06:26.107Z,63.93
2023-02-14T07:08:52.577Z,76.07
2023-02-14T07:11:19.067Z,56.10
2023-02-14T07:13:47.105Z,55.97
2023-02-14T07:16:14.670Z,61.60
2023-02-14T07:18:41.141Z,55.57
2023-02-14T07:21:07.552Z,53.23
2023-02-14T07:23:34.112Z,71.10
2023-02-14T07:26:00.600Z,60.13
2023-02-14T07:28:27.033Z,51.80
2023-02-14T07:30:53.715Z,74.53
2023-02-14T07:33:20.236Z,61.87
2023-02-14T07:35:46.687Z,66.73
2023-02-14T07:38:13.091Z,53.47
2023-02-14T07:40:39.562Z,54.37
2023-02-14T07:43:06.429Z,55.13
2023-02-14T07:45:32.917Z,54.33
2023-02-14T07:48:02.086Z,54.20
2023-02-14T07:50:29.111Z,56.87
2023-02-14T07:52:55.913Z,59.83
2023-02-14T07:55:25.001Z,56.97
2023-02-14T07:57:51.907Z,60.67
2023-02-14T08:00:18.985Z,52.47
2023-02-14T08:02:45.528Z,54.43
2023-02-14T08:05:12.094Z,45.93
2023-02-14T08:07:38.554Z,48.77
2023-02-14T08:10:05.421Z,52.17
2023-02-14T08:12:50.541Z,46.67
2023-02-14T08:15:35.634Z,45.00
2023-02-14T08:18:02.272Z,47.50
2023-02-14T08:20:28.767Z,49.87
2023-02-14T08:22:55.842Z,41.73
2023-02-14T08:25:22.386Z,41.83
2023-02-14T08:27:48.853Z,40.20
2023-02-14T08:30:15.553Z,41.30
2023-02-14T08:32:42.244Z,41.93
2023-02-14T08:35:08.879Z,40.00
2023-02-14T08:37:35.557Z,34.17
2023-02-14T08:40:02.009Z,35.10
2023-02-14T08:42:29.640Z,40.87
2023-02-14T08:44:56.171Z,35.10
2023-02-14T08:47:22.704Z,38.17
2023-02-14T08:49:49.162Z,31.47
2023-02-14T08:52:15.889Z,32.60
2023-02-14T08:54:42.317Z,27.37
2023-02-14T08:57:08.821Z,31.13
2023-02-14T08:59:35.356Z,28.43
2023-02-14T09:02:01.896Z,27.77
2023-02-14T09:04:28.443Z,30.43
2023-02-14T09:06:55.027Z,27.10
2023-02-14T09:09:21.481Z,27.00
2023-02-14T09:11:47.951Z,26.93
2023-02-14T09:14:14.456Z,26.00
2023-02-14T09:16:40.979Z,25.90
2023-02-14T09:19:07.468Z,24.27
2023-02-14T09:21:34.328Z,24.33
2023-02-14T09:24:00.841Z,24.83
2023-02-14T09:26:28.711Z,24.73
2023-02-14T09:28:56.169Z,29.03
2023-02-14T09:31:23.412Z,23.77
2023-02-14T09:33:50.577Z,23.80
2023-02-14T09:36:20.786Z,22.33
2023-02-14T09:38:47.559Z,25.23
2023-02-14T09:41:20.347Z,24.40
2023-02-14T09:43:58.166Z,25.73
2023-02-14T09:46:26.100Z,26.43
2023-02-14T09:48:55.650Z,24.48
2023-02-14T09:51:35.580Z,24.52
2023-02-14T09:54:04.085Z,22.02
2023-02-14T09:56:59.290Z,22.75
2023-02-14T09:59:30.730Z,21.48
2023-02-14T10:01:59.808Z,21.05
2023-02-14T10:04:38.210Z,22.25
2023-02-14T10:07:15.236Z,20.75
2023-02-14T10:09:54.349Z,23.75
2023-02-14T10:12:31.664Z,21.35
2023-02-14T10:15:02.944Z,21.27
2023-02-14T10:17:36.575Z,20.52
2023-02-14T10:20:07.557Z,22.63
2023-02-14T10:22:43.221Z,23.80
2023-02-14T10:25:19.170Z,21.50
2023-02-14T10:27:46.425Z,20.90
2023-02-14T10:30:21.037Z,22.05
2023-02-14T10:32:48.553Z,18.90
2023-02-14T10:35:35.347Z,20.83
2023-02-14T10:38:02.801Z,20.85
2023-02-14T10:40:40.019Z,20.38
2023-02-14T10:43:15.407Z,20.48
2023-02-14T10:45:47.401Z,20.20
2023-02-14T10:48:24.436Z,21.92
2023-02-14T10:50:57.162Z,21.63
2023-02-14T10:53:43.057Z,20.45
2023-02-14T10:56:18.664Z,20.77
2023-02-14T10:58:50.480Z,18.50
2023-02-14T11:01:18.907Z,18.88
2023-02-14T11:03:54.647Z,19.40
2023-02-14T11:06:21.365Z,21.02
2023-02-14T11:08:47.884Z,18.65
2023-02-14T11:11:21.336Z,21.13
2023-02-14T11:13:48.071Z,19.65
2023-02-14T11:16:31.843Z,18.70
2023-02-14T11:19:20.406Z,19.35
2023-02-14T11:21:47.876Z,19.35
2023-02-14T11:24:28.756Z,21.88
2023-02-14T11:26:57.859Z,19.35
2023-02-14T11:29:36.518Z,19.65
2023-02-14T11:32:07.932Z,19.50
2023-02-14T11:34:40.054Z,18.88
2023-02-14T11:37:37.125Z,19.20
2023-02-14T11:40:04.305Z,19.58
2023-02-14T11:42:37.020Z,20.05
2023-02-14T11:45:05.195Z,18.77
2023-02-14T11:47:33.033Z,19.60
2023-02-14T11:50:10.607Z,17.40
2023-02-14T11:52:46.068Z,17.98
2023-02-14T11:55:22.069Z,17.50
2023-02-14T11:57:48.651Z,19.42
2023-02-14T12:00:17.272Z,18.05
2023-02-14T12:02:44.755Z,17.33
2023-02-14T12:05:28.226Z,16.80
2023-02-14T12:07:59.327Z,18.80
2023-02-14T12:10:29.479Z,17.33
2023-02-14T12:12:58.250Z,17.20
2023-02-14T12:15:27.038Z,18.63
2023-02-14T12:17:58.990Z,17.00
2023-02-14T12:20:44.096Z,18.15
2023-02-14T12:23:15.290Z,17.63
2023-02-14T12:25:47.886Z,15.40
2023-02-14T12:28:16.491Z,17.27
2023-02-14T12:30:42.995Z,19.70
2023-02-14T12:33:15.059Z,17.13
2023-02-14T12:35:54.776Z,15.85
2023-02-14T12:38:29.785Z,16.90
2023-02-14T12:40:56.213Z,17.00
2023-02-14T12:43:34.958Z,17.13
2023-02-14T12:46:16.464Z,15.77
2023-02-14T12:49:01.586Z,16.42
2023-02-14T12:51:34.603Z,20.13
2023-02-14T12:54:19.668Z,17.13
2023-02-14T12:56:54.376Z,15.35
2023-02-14T12:59:28.609Z,17.20
2023-02-14T13:02:10.419Z,18.35
2023-02-14T13:05:01.467Z,15.60
2023-02-14T13:07:50.421Z,18.10
2023-02-14T13:10:44.564Z,15.25
2023-02-14T13:13:23.241Z,16.48
2023-02-14T13:15:59.473Z,16.65
2023-02-14T13:18:41.128Z,17.00
2023-02-14T13:21:09.538Z,17.67
2023-02-14T13:23:40.164Z,17.42
2023-02-14T13:26:10.133Z,17.02
2023-02-14T13:28:37.434Z,14.60
2023-02-14T13:31:04.793Z,19.75
2023-02-14T13:33:37.899Z,15.27
2023-02-14T13:36:07.704Z,14.38
2023-02-14T13:38:36.649Z,18.25
2023-02-14T13:41:05.367Z,15.27
2023-02-14T13:43:52.167Z,18.27
2023-02-14T13:46:19.890Z,16.23
2023-02-14T13:48:57.031Z,16.85
2023-02-14T13:52:07.439Z,19.08
2023-02-14T13:54:37.938Z,18.20
2023-02-14T13:57:24.938Z,15.95
2023-02-14T14:00:10.908Z,19.23
2023-02-14T14:02:43.656Z,16.13
2023-02-14T14:05:28.911Z,17.77
2023-02-14T14:08:14.147Z,17.00
2023-02-14T14:10:45.012Z,16.08
2023-02-14T14:13:31.407Z,17.23
2023-02-14T14:16:16.799Z,16.60
2023-02-14T14:18:43.685Z,17.98
2023-02-14T14:21:22.913Z,19.48
2023-02-14T14:24:08.194Z,18.17
2023-02-14T14:26:36.394Z,14.98
2023-02-14T14:29:09.577Z,19.15
2023-02-14T14:31:36.896Z,17.67
2023-02-14T14:34:03.400Z,17.75
2023-02-14T14:36:29.924Z,18.42
2023-02-14T14:38:56.388Z,30.35
2023-02-14T14:41:29.371Z,21.15
2023-02-14T14:43:55.898Z,17.80
2023-02-14T14:46:22.600Z,17.45
2023-02-14T14:48:50.755Z,15.80
2023-02-14T14:51:22.486Z,15.23
2023-02-14T14:53:52.308Z,14.50
2023-02-14T14:56:21.963Z,16.05
2023-02-14T14:58:48.745Z,15.50
2023-02-14T15:01:32.162Z,17.02
2023-02-14T15:04:10.577Z,16.17
2023-02-14T15:06:38.737Z,16.05
2023-02-14T15:09:16.206Z,16.23
2023-02-14T15:12:02.516Z,17.85
2023-02-14T15:14:30.089Z,17.58
2023-02-14T15:16:59.466Z,14.38
2023-02-14T15:19:34.677Z,17.63
2023-02-14T15:22:02.155Z,16.30
2023-02-14T15:24:30.633Z,18.42
2023-02-14T15:26:57.435Z,16.15
2023-02-14T15:29:25.894Z,17.17
2023-02-14T15:31:53.135Z,14.73
2023-02-14T15:34:24.712Z,15.05
2023-02-14T15:36:59.026Z,16.90
2023-02-14T15:39:31.706Z,16.98
2023-02-14T15:41:58.190Z,17.20
2023-02-14T15:44:25.716Z,16.88
2023-02-14T15:47:03.525Z,18.40
2023-02-14T15:49:32.535Z,14.27
2023-02-14T15:52:00.488Z,15.27
2023-02-14T15:54:33.249Z,14.20
2023-02-14T15:57:00.157Z,14.93
2023-02-14T15:59:29.708Z,15.00
2023-02-14T16:01:58.557Z,14.15
2023-02-14T16:04:26.568Z,16.67
2023-02-14T16:07:08.485Z,13.73
2023-02-14T16:09:34.918Z,15.43
2023-02-14T16:12:21.657Z,15.20
2023-02-14T16:14:58.885Z,17.00
2023-02-14T16:17:32.712Z,16.00
2023-02-14T16:19:59.550Z,19.08
2023-02-14T16:22:32.109Z,14.85
2023-02-14T16:24:59.086Z,16.08
2023-02-14T16:27:25.551Z,15.27
2023-02-14T16:29:52.079Z,14.20
2023-02-14T16:32:22.155Z,13.98
2023-02-14T16:34:49.224Z,15.57
2023-02-14T16:37:27.995Z,17.27
2023-02-14T16:39:56.502Z,15.23
2023-02-14T16:42:23.300Z,16.73
2023-02-14T16:44:50.354Z,19.02
2023-02-14T16:47:18.103Z,14.48
2023-02-14T16:49:44.561Z,25.52
2023-02-14T16:52:16.319Z,18.92
2023-02-14T16:54:42.850Z,16.73
2023-02-14T16:57:12.671Z,17.83
2023-02-14T16:59:39.124Z,15.65
2023-02-14T17:02:05.612Z,15.60
2023-02-14T17:04:32.254Z,14.80
2023-02-14T17:07:01.760Z,16.13
2023-02-14T17:09:32.031Z,14.45
2023-02-14T17:12:00.727Z,15.45
2023-02-14T17:14:29.349Z,16.38
2023-02-14T17:16:56.696Z,17.63
2023-02-14T17:19:23.209Z,16.55
2023-02-14T17:21:49.694Z,16.88
2023-02-14T17:24:16.101Z,15.23
2023-02-14T17:26:42.654Z,18.85
2023-02-14T17:29:09.326Z,15.65
2023-02-14T17:31:36.206Z,17.45
2023-02-14T17:34:02.966Z,20.52
2023-02-14T17:36:30.011Z,18.63
2023-02-14T17:38:56.520Z,17.77
2023-02-14T17:41:24.238Z,18.80
2023-02-14T17:43:51.950Z,20.38
2023-02-14T17:46:18.718Z,20.63
2023-02-14T17:48:45.557Z,19.33
2023-02-14T17:51:12.598Z,16.83
2023-02-14T17:53:41.311Z,18.92
2023-02-14T17:56:09.407Z,17.77
2023-02-14T17:58:36.081Z,19.33
2023-02-14T18:01:06.694Z,16.17
2023-02-14T18:03:33.295Z,17.33
2023-02-14T18:06:00.254Z,18.75
2023-02-14T18:08:28.562Z,18.13
2023-02-14T18:10:55.364Z,18.10
2023-02-14T18:13:22.513Z,18.55
2023-02-14T18:15:49.145Z,21.10
2023-02-14T18:18:15.592Z,20.90
2023-02-14T18:20:42.074Z,16.95
2023-02-14T18:23:09.358Z,18.20
2023-02-14T18:25:36.306Z,20.15
2023-02-14T18:28:02.777Z,17.73
2023-02-14T18:30:29.320Z,18.48
2023-02-14T18:32:58.998Z,17.15
2023-02-14T18:35:25.585Z,17.13
2023-02-14T18:37:52.099Z,19.30
2023-02-14T18:40:20.412Z,17.67
2023-02-14T18:42:46.873Z,19.65
2023-02-14T18:45:13.379Z,20.60
2023-02-14T18:47:40.019Z,18.50
2023-02-14T18:50:06.923Z,17.35
2023-02-14T18:52:35.107Z,18.67
2023-02-14T18:55:01.678Z,19.58
2023-02-14T18:57:28.157Z,18.35
2023-02-14T18:59:54.615Z,21.60
2023-02-14T19:02:21.907Z,19.40
2023-02-14T19:04:48.612Z,18.85
2023-02-14T19:07:15.047Z,17.13
2023-02-14T19:09:43.048Z,18.02
2023-02-14T19:12:09.894Z,17.80
2023-02-14T19:14:36.781Z,19.38
2023-02-14T19:17:04.387Z,19.08
2023-02-14T19:19:31.285Z,17.88
2023-02-14T19:21:58.428Z,21.50
2023-02-14T19:24:25.919Z,20.67
2023-02-14T19:26:52.756Z,19.10
2023-02-14T19:29:20.216Z,20.43
2023-02-14T19:31:48.391Z,19.20
2023-02-14T19:34:16.915Z,18.30
2023-02-14T19:36:43.397Z,17.90
2023-02-14T19:39:10.640Z,19.13
2023-02-14T19:41:37.124Z,20.85
2023-02-14T19:44:04.915Z,19.90
2023-02-14T19:46:31.990Z,17.58
2023-02-14T19:48:58.890Z,18.52
2023-02-14T19:51:27.718Z,19.27
2023-02-14T19:53:55.086Z,20.83
2023-02-14T19:56:22.255Z,23.33
2023-02-14T19:58:49.335Z,22.33
2023-02-14T20:01:26.819Z,23.13
2023-02-14T20:03:53.697Z,22.57
2023-02-14T20:06:20.807Z,19.30
2023-02-14T20:08:47.764Z,23.40
2023-02-14T20:11:26.448Z,21.80
2023-02-14T20:13:54.057Z,24.10
2023-02-14T20:16:21.469Z,26.60
2023-02-14T20:18:48.726Z,23.13
2023-02-14T20:21:23.889Z,23.60
2023-02-14T20:23:50.838Z,23.17
2023-02-14T20:26:17.815Z,23.77
2023-02-14T20:28:44.559Z,23.63
2023-02-14T20:31:12.793Z,23.73
2023-02-14T20:33:40.079Z,23.10
2023-02-14T20:36:06.666Z,25.58
2023-02-14T20:38:33.525Z,23.23
2023-02-14T20:41:10.785Z,22.33
2023-02-14T20:43:37.875Z,22.37
2023-02-14T20:46:05.675Z,24.07
2023-02-14T20:48:32.786Z,24.77
2023-02-14T20:51:08.192Z,22.23
2023-02-14T20:53:34.658Z,25.37
2023-02-14T20:56:01.089Z,22.40
2023-02-14T20:58:29.882Z,25.17
2023-02-14T21:00:57.038Z,27.87
2023-02-14T21:03:23.716Z,23.73
2023-02-14T21:05:50.148Z,26.00
2023-02-14T21:08:16.753Z,25.67
2023-02-14T21:10:43.584Z,24.17
2023-02-14T21:13:10.303Z,25.93
2023-02-14T21:15:36.954Z,24.63
2023-02-14T21:18:04.629Z,25.73
2023-02-14T21:20:31.068Z,27.03
2023-02-14T21:22:57.517Z,26.00
2023-02-14T21:25:26.413Z,26.87
2023-02-14T21:27:53.317Z,23.20
2023-02-14T21:30:20.250Z,26.17
2023-02-14T21:32:46.696Z,25.87
2023-02-14T21:35:13.174Z,25.47
2023-02-14T21:37:39.724Z,24.43
2023-02-14T21:40:06.972Z,23.73
2023-02-14T21:42:33.482Z,26.73
2023-02-14T21:45:18.721Z,23.30
2023-02-14T21:48:05.173Z,28.13
2023-02-14T21:50:31.662Z,24.40
2023-02-14T21:52:58.251Z,24.20
2023-02-14T21:55:24.714Z,27.53
2023-02-14T21:57:51.132Z,26.40
2023-02-14T22:00:17.965Z,27.93
2023-02-14T22:02:44.497Z,26.00
2023-02-14T22:05:10.936Z,26.33
2023-02-14T22:07:37.538Z,29.13
2023-02-14T22:10:04.389Z,28.90
2023-02-14T22:12:30.872Z,25.47
2023-02-14T22:15:01.232Z,26.27
2023-02-14T22:17:27.959Z,25.50
2023-02-14T22:19:54.767Z,26.63
2023-02-14T22:22:21.497Z,25.90
2023-02-14T22:24:48.499Z,25.73
2023-02-14T22:27:16.059Z,25.57
2023-02-14T22:29:42.586Z,28.57
2023-02-14T22:32:09.469Z,27.80
2023-02-14T22:34:36.291Z,31.33
2023-02-14T22:37:02.794Z,27.83
2023-02-14T22:39:29.265Z,30.57
2023-02-14T22:41:55.717Z,27.03
2023-02-14T22:44:22.187Z,30.47
2023-02-14T22:46:48.766Z,29.53
2023-02-14T22:49:15.482Z,28.10
2023-02-14T22:51:42.378Z,29.43
2023-02-14T22:54:12.259Z,30.83
2023-02-14T22:56:40.435Z,31.53
2023-02-14T22:59:08.167Z,32.23
2023-02-14T23:01:36.017Z,38.27
2023-02-14T23:04:02.741Z,30.77
2023-02-14T23:06:31.048Z,34.33
2023-02-14T23:08:57.564Z,31.90
2023-02-14T23:11:25.188Z,29.13
2023-02-14T23:14:10.201Z,32.20
2023-02-14T23:16:55.074Z,30.47
2023-02-14T23:19:41.590Z,31.83
2023-02-14T23:22:12.940Z,30.67
2023-02-14T23:24:39.839Z,30.57
2023-02-14T23:27:06.749Z,33.70
2023-02-14T23:29:33.593Z,30.10
2023-02-14T23:32:00.138Z,34.77
2023-02-14T23:34:30.957Z,32.23
2023-02-14T23:36:57.700Z,31.97
2023-02-14T23:39:24.130Z,29.97
2023-02-14T23:41:59.360Z,31.26
2023-02-14T23:44:26.930Z,31.77
2023-02-14T23:46:54.503Z,33.57
2023-02-14T23:49:21.479Z,31.97
2023-02-14T23:51:48.599Z,31.43
2023-02-14T23:54:15.173Z,34.13
2023-02-14T23:56:41.787Z,35.93
2023-02-14T23:59:08.386Z,33.30
